Shana Des Slops — FFZR — position and weather

sailwx.info

Track history (hours):
 
Tides and Currents Weather Stations Pressure Air Temp Water Temp Dewpoint Dewpoint Depression Visibility Wind Speed Wind Dir Waves Ship Positions

Shana Des Slops

Last reported at 2015-Jun-30 02:33 UTC. Time now 2015-Jun-30 03:28 UTC.
Position N 43°24' E 004°60'.

Length 47 m; draft 3.2 m.

Type: Tanker. MMSI: 228003800.

Date/timePositionNaut miles runAvg speedWind from/ knotsBaromVisibWave heightAir tempDewpointWater temp
2015-Jun-30 02:33N 43°24' E 004°60'0 0.0
2015-Jun-30 01:33N 43°24' E 004°60'0 0.0
2015-Jun-30 00:33N 43°24' E 004°60'0 0.0
2015-Jun-29 23:33N 43°24' E 004°60'0 0.0
2015-Jun-29 22:33N 43°24' E 004°60'0 0.0
2015-Jun-29 21:33N 43°24' E 004°60'0 0.0
2015-Jun-29 20:33N 43°24' E 004°60'0 0.0
2015-Jun-29 19:33N 43°24' E 004°60'0 0.0
2015-Jun-29 18:33N 43°24' E 004°60'0 0.0
2015-Jun-29 17:33N 43°24' E 004°60'0 0.0
2015-Jun-29 16:33N 43°24' E 004°60'0 0.0
2015-Jun-29 15:33N 43°24' E 004°60'0 0.0
2015-Jun-29 14:33N 43°24' E 004°60'3 2.7
2015-Jun-29 13:31N 43°24' E 004°56'0 0.0
2015-Jun-29 12:28N 43°24' E 004°56'0 0.0
2015-Jun-29 11:34N 43°24' E 004°56'3 2.8
2015-Jun-29 10:33N 43°24' E 004°60'0 0.0
2015-Jun-29 09:33N 43°24' E 004°60'0 0.0
2015-Jun-29 08:34N 43°24' E 004°60'0 0.0
2015-Jun-29 07:33N 43°24' E 004°60'0 0.0
2015-Jun-29 06:33N 43°24' E 004°60'0 0.0
2015-Jun-29 05:33N 43°24' E 004°60'0 0.0
2015-Jun-29 04:33N 43°24' E 004°60'0 0.0
2015-Jun-29 03:33N 43°24' E 004°60'0 0.0
2015-Jun-29 02:33N 43°24' E 004°60'0 0.0
2015-Jun-29 01:33N 43°24' E 004°60'0 0.0
2015-Jun-29 00:33N 43°24' E 004°60'0 0.0
2015-Jun-28 23:33N 43°24' E 004°60'0 0.0
2015-Jun-28 22:34N 43°24' E 004°60'0 0.0
2015-Jun-28 21:33N 43°24' E 004°60'0 0.0
2015-Jun-28 20:33N 43°24' E 004°60'0 0.0
2015-Jun-28 19:33N 43°24' E 004°60'0 0.0
2015-Jun-28 18:33N 43°24' E 004°60'0 0.0
2015-Jun-28 17:34N 43°24' E 004°60'0 0.0
2015-Jun-28 16:33N 43°24' E 004°60'0 0.0
2015-Jun-28 15:33N 43°24' E 004°60'0 0.0
2015-Jun-28 14:33N 43°24' E 004°60'0 0.0
2015-Jun-28 13:33N 43°24' E 004°60'0 0.0
2015-Jun-28 12:33N 43°24' E 004°60'0 0.0
2015-Jun-28 11:33N 43°24' E 004°60'0 0.0
2015-Jun-28 10:33N 43°24' E 004°60'0 0.0
2015-Jun-28 09:33N 43°24' E 004°60'0 0.0
2015-Jun-28 08:34N 43°24' E 004°60'0 0.0
2015-Jun-28 07:33N 43°24' E 004°60'0 0.0
2015-Jun-28 06:33N 43°24' E 004°60'0 0.0
2015-Jun-28 05:33N 43°24' E 004°60'0 0.0
2015-Jun-28 04:33N 43°24' E 004°60'0 0.0
2015-Jun-28 03:33N 43°24' E 004°60'0 0.0
2015-Jun-28 02:33N 43°24' E 004°60'0 0.0
2015-Jun-28 01:33N 43°24' E 004°60'0 0.0
2015-Jun-28 00:33N 43°24' E 004°60'0 0.0
2015-Jun-27 23:33N 43°24' E 004°60'0 0.0
2015-Jun-27 22:34N 43°24' E 004°60'4 3.6
2015-Jun-27 21:34N 43°21' E 005°00'7 7.4
2015-Jun-27 20:33N 43°16' E 005°08'8 7.9
2015-Jun-27 19:33N 43°12' E 005°18'8 7.7
2015-Jun-27 18:33N 43°09' E 005°27'8 7.7
2015-Jun-27 17:33N 43°06' E 005°37'8 7.6
2015-Jun-27 16:33N 43°04' E 005°47'7 6.9
2015-Jun-27 15:33N 43°04' E 005°56'4 3.6
2015-Jun-27 14:31N 43°06' E 005°53'0 0.0
2015-Jun-27 13:31N 43°06' E 005°53'0 0.0
2015-Jun-27 12:28N 43°06' E 005°53'0 0.0
2015-Jun-27 11:31N 43°06' E 005°53'0 0.0
2015-Jun-27 10:31N 43°06' E 005°53'0 0.0
2015-Jun-27 09:34N 43°06' E 005°53'0 0.0
2015-Jun-27 08:33N 43°06' E 005°53'2 2.2
2015-Jun-27 07:33N 43°05' E 005°56'5 4.9
2015-Jun-27 06:32N 43°03' E 005°50'8 8.0
2015-Jun-27 05:33N 43°05' E 005°40'9 8.4
2015-Jun-27 04:32N 43°08' E 005°29'8 8.3
2015-Jun-27 03:33N 43°12' E 005°19'8 8.5
2015-Jun-27 02:33N 43°16' E 005°08'8 8.2
2015-Jun-27 01:33N 43°21' E 005°00'3 3.0
2015-Jun-27 00:31N 43°24' E 004°60'0 0.0
2015-Jun-26 23:32N 43°24' E 004°60'0 0.0
2015-Jun-26 22:31N 43°24' E 004°60'0 0.0
2015-Jun-26 21:28N 43°24' E 004°60'0 0.0
2015-Jun-26 20:31N 43°24' E 004°60'0 0.0
2015-Jun-26 19:31N 43°24' E 004°60'0 0.0
2015-Jun-26 18:31N 43°24' E 004°60'0 0.0
2015-Jun-26 17:29N 43°24' E 004°60'0 0.0
2015-Jun-26 16:32N 43°24' E 004°60'0 0.0
2015-Jun-26 15:32N 43°24' E 004°60'0 0.0
2015-Jun-26 14:32N 43°24' E 004°60'0 0.0
2015-Jun-26 13:32N 43°24' E 004°60'0 0.0
2015-Jun-26 12:33N 43°24' E 004°60'0 0.0
2015-Jun-26 11:33N 43°24' E 004°60'0 0.0
2015-Jun-26 10:33N 43°24' E 004°60'0 0.0
2015-Jun-26 09:33N 43°24' E 004°60'0 0.0
2015-Jun-26 08:33N 43°24' E 004°60'0 0.0
2015-Jun-26 07:30N 43°24' E 004°60'0 0.0
2015-Jun-26 06:33N 43°24' E 004°60'0 0.0
2015-Jun-26 05:33N 43°24' E 004°60'0 0.0
2015-Jun-26 04:33N 43°24' E 004°60'0 0.0
2015-Jun-26 03:33N 43°24' E 004°60'0 0.0
2015-Jun-26 02:33N 43°24' E 004°60'0 0.0
2015-Jun-26 01:33N 43°24' E 004°60'0 0.0
2015-Jun-26 00:33N 43°24' E 004°60'0 0.0
2015-Jun-25 23:33N 43°24' E 004°60'0 0.0
2015-Jun-25 22:33N 43°24' E 004°60'0 0.0
2015-Jun-25 21:33N 43°24' E 004°60'0 0.0
2015-Jun-25 20:33N 43°24' E 004°60'0 0.0
2015-Jun-25 19:33N 43°24' E 004°60'0 0.0
2015-Jun-25 18:33N 43°24' E 004°60'0 0.0
2015-Jun-25 17:33N 43°24' E 004°60'1 0.7
2015-Jun-25 16:33N 43°24' E 004°59'0 0.0
2015-Jun-25 15:33N 43°24' E 004°59'0 0.0
2015-Jun-25 14:33N 43°24' E 004°59'0 0.0
2015-Jun-25 13:33N 43°24' E 004°59'0 0.0
2015-Jun-25 12:33N 43°24' E 004°59'0 0.3
2015-Jun-25 11:34N 43°24' E 004°59'0 0.4
2015-Jun-25 10:32N 43°24' E 004°60'0 0.0
2015-Jun-25 09:32N 43°24' E 004°60'0 0.0
2015-Jun-25 08:32N 43°24' E 004°60'0 0.0
2015-Jun-25 07:31N 43°24' E 004°60'0 0.0
2015-Jun-25 06:33N 43°24' E 004°60'0 0.0
2015-Jun-25 05:33N 43°24' E 004°60'0 0.0
2015-Jun-25 04:33N 43°24' E 004°60'0 0.0
2015-Jun-25 03:33N 43°24' E 004°60'0 0.0
2015-Jun-25 02:33N 43°24' E 004°60'0 0.0
2015-Jun-25 01:33N 43°24' E 004°60'0 0.0
2015-Jun-25 00:33N 43°24' E 004°60'0 0.0
2015-Jun-24 23:33N 43°24' E 004°60'0 0.0
2015-Jun-24 22:33N 43°24' E 004°60'0 0.0
2015-Jun-24 21:33N 43°24' E 004°60'0 0.0
2015-Jun-24 20:33N 43°24' E 004°60'0 0.0
2015-Jun-24 19:34N 43°24' E 004°60'5 4.7
2015-Jun-24 18:31N 43°25' E 004°53'0 0.0
2015-Jun-24 17:28N 43°25' E 004°53'0 0.0
2015-Jun-24 16:31N 43°25' E 004°53'1 0.8
2015-Jun-24 15:34N 43°24' E 004°53'5 4.5
2015-Jun-24 14:32N 43°24' E 004°60'0 0.0
2015-Jun-24 13:32N 43°24' E 004°60'0 0.0
2015-Jun-24 12:32N 43°24' E 004°60'0 0.0
2015-Jun-24 11:32N 43°24' E 004°60'0 0.0
2015-Jun-24 10:32N 43°24' E 004°60'2 2.3
2015-Jun-24 09:33N 43°24' E 004°57'3 3.3
2015-Jun-24 08:33N 43°26' E 004°53'0 0.0
2015-Jun-24 07:34N 43°26' E 004°53'5 4.8
2015-Jun-24 06:32N 43°24' E 004°60'0 0.0
2015-Jun-24 05:32N 43°24' E 004°60'0 0.0
2015-Jun-24 04:32N 43°24' E 004°60'0 0.0
2015-Jun-24 03:32N 43°24' E 004°60'0 0.0
2015-Jun-24 02:32N 43°24' E 004°60'0 0.0
2015-Jun-24 01:32N 43°24' E 004°60'0 0.0
2015-Jun-24 00:31N 43°24' E 004°60'0 0.0
2015-Jun-23 23:31N 43°24' E 004°60'0 0.0
2015-Jun-23 22:31N 43°24' E 004°60'0 0.0
2015-Jun-23 21:31N 43°24' E 004°60'0 0.0
2015-Jun-23 20:31N 43°24' E 004°60'0 0.0
2015-Jun-23 19:31N 43°24' E 004°60'0 0.0
2015-Jun-23 19:04N 43°24' E 004°60'0 0.0
2015-Jun-22 19:31N 43°24' E 004°60'0 0.0
2015-Jun-22 18:31N 43°24' E 004°60'0 0.0
2015-Jun-22 17:31N 43°24' E 004°60'0 0.0
2015-Jun-22 16:31N 43°24' E 004°60'1 1.2
2015-Jun-22 15:31N 43°24' E 004°58'0 0.0
2015-Jun-22 14:31N 43°24' E 004°58'0 0.0
2015-Jun-22 13:31N 43°24' E 004°58'1 1.2
2015-Jun-22 12:30N 43°24' E 004°60'0 0.0
2015-Jun-22 11:33N 43°24' E 004°60'0 0.0
2015-Jun-22 10:33N 43°24' E 004°60'0 0.0
2015-Jun-22 09:33N 43°24' E 004°60'0 0.0
2015-Jun-22 08:32N 43°24' E 004°60'0 0.0
2015-Jun-22 07:32N 43°24' E 004°60'0 0.0
2015-Jun-22 06:32N 43°24' E 004°60'0 0.0
2015-Jun-22 05:32N 43°24' E 004°60'0 0.0
2015-Jun-22 04:32N 43°24' E 004°60'0 0.0
2015-Jun-22 03:32N 43°24' E 004°60'0 0.0
2015-Jun-22 02:32N 43°24' E 004°60'0 0.0
2015-Jun-22 01:32N 43°24' E 004°60'0 0.0
2015-Jun-22 00:32N 43°24' E 004°60'0 0.0
2015-Jun-21 23:32N 43°24' E 004°60'0 0.0
2015-Jun-21 22:32N 43°24' E 004°60'0 0.0
2015-Jun-21 21:32N 43°24' E 004°60'0 0.0
2015-Jun-21 20:32N 43°24' E 004°60'0 0.0
2015-Jun-21 19:32N 43°24' E 004°60'0 0.0
2015-Jun-21 18:32N 43°24' E 004°60'0 0.0
2015-Jun-21 17:32N 43°24' E 004°60'0 0.0
2015-Jun-21 16:32N 43°24' E 004°60'0 0.0
2015-Jun-21 15:32N 43°24' E 004°60'0 0.0
2015-Jun-21 14:32N 43°24' E 004°60'0 0.0
2015-Jun-21 13:32N 43°24' E 004°60'0 0.0
2015-Jun-21 12:32N 43°24' E 004°60'0 0.0
2015-Jun-21 11:32N 43°24' E 004°60'0 0.0
2015-Jun-21 10:32N 43°24' E 004°60'0 0.0
2015-Jun-21 09:32N 43°24' E 004°60'0 0.0
2015-Jun-21 08:32N 43°24' E 004°60'0 0.0
2015-Jun-21 07:32N 43°24' E 004°60'0 0.0
2015-Jun-21 06:32N 43°24' E 004°60'0 0.0
2015-Jun-21 05:29N 43°24' E 004°60'0 0.0
2015-Jun-21 04:32N 43°24' E 004°60'0 0.0
2015-Jun-21 03:33N 43°24' E 004°60'0 0.0
2015-Jun-21 02:33N 43°24' E 004°60'0 0.0
2015-Jun-21 01:33N 43°24' E 004°60'0 0.0
2015-Jun-21 00:33N 43°24' E 004°60'0 0.0
2015-Jun-20 23:33N 43°24' E 004°60'0 0.0
2015-Jun-20 22:33N 43°24' E 004°60'0 0.0
2015-Jun-20 21:33N 43°24' E 004°60'0 0.0
2015-Jun-20 20:33N 43°24' E 004°60'0 0.0
2015-Jun-20 19:33N 43°24' E 004°60'0 0.0
2015-Jun-20 18:33N 43°24' E 004°60'0 0.0
2015-Jun-20 17:33N 43°24' E 004°60'0 0.0
2015-Jun-20 16:33N 43°24' E 004°60'0 0.0
2015-Jun-20 15:33N 43°24' E 004°60'0 0.0
2015-Jun-20 14:33N 43°24' E 004°60'0 0.0
2015-Jun-20 13:33N 43°24' E 004°60'0 0.0
2015-Jun-20 12:33N 43°24' E 004°60'0 0.0
2015-Jun-20 11:33N 43°24' E 004°60'0 0.0
2015-Jun-20 10:33N 43°24' E 004°60'0 0.0
2015-Jun-20 09:31N 43°24' E 004°60'0 0.0
2015-Jun-20 08:31N 43°24' E 004°60'0 0.0
2015-Jun-20 07:31N 43°24' E 004°60'0 0.0
2015-Jun-20 06:31N 43°24' E 004°60'0 0.0
2015-Jun-20 05:31N 43°24' E 004°60'0 0.0
2015-Jun-20 04:31N 43°24' E 004°60'0 0.0
2015-Jun-20 03:31N 43°24' E 004°60'  
Track history (hours):
 
Tides and Currents Weather Stations Pressure Air Temp Water Temp Dewpoint Dewpoint Depression Visibility Wind Speed Wind Dir Waves Ship Positions

Shana Des Slops

Last reported at 2015-Jun-30 02:33 UTC. Time now 2015-Jun-30 03:28 UTC.
Position N 43°24' E 004°60'.

Length 47 m; draft 3.2 m.

Type: Tanker. MMSI: 228003800.

Date/timePositionNaut miles runAvg speedWind from/ knotsBaromVisibWave heightAir tempDewpointWater temp
2015-Jun-30 02:33N 43°24' E 004°60'0 0.0
2015-Jun-30 01:33N 43°24' E 004°60'0 0.0
2015-Jun-30 00:33N 43°24' E 004°60'0 0.0
2015-Jun-29 23:33N 43°24' E 004°60'0 0.0
2015-Jun-29 22:33N 43°24' E 004°60'0 0.0
2015-Jun-29 21:33N 43°24' E 004°60'0 0.0
2015-Jun-29 20:33N 43°24' E 004°60'0 0.0
2015-Jun-29 19:33N 43°24' E 004°60'0 0.0
2015-Jun-29 18:33N 43°24' E 004°60'0 0.0
2015-Jun-29 17:33N 43°24' E 004°60'0 0.0
2015-Jun-29 16:33N 43°24' E 004°60'0 0.0
2015-Jun-29 15:33N 43°24' E 004°60'0 0.0
2015-Jun-29 14:33N 43°24' E 004°60'3 2.7
2015-Jun-29 13:31N 43°24' E 004°56'0 0.0
2015-Jun-29 12:28N 43°24' E 004°56'0 0.0
2015-Jun-29 11:34N 43°24' E 004°56'3 2.8
2015-Jun-29 10:33N 43°24' E 004°60'0 0.0
2015-Jun-29 09:33N 43°24' E 004°60'0 0.0
2015-Jun-29 08:34N 43°24' E 004°60'0 0.0
2015-Jun-29 07:33N 43°24' E 004°60'0 0.0
2015-Jun-29 06:33N 43°24' E 004°60'0 0.0
2015-Jun-29 05:33N 43°24' E 004°60'0 0.0
2015-Jun-29 04:33N 43°24' E 004°60'0 0.0
2015-Jun-29 03:33N 43°24' E 004°60'0 0.0
2015-Jun-29 02:33N 43°24' E 004°60'0 0.0
2015-Jun-29 01:33N 43°24' E 004°60'0 0.0
2015-Jun-29 00:33N 43°24' E 004°60'0 0.0
2015-Jun-28 23:33N 43°24' E 004°60'0 0.0
2015-Jun-28 22:34N 43°24' E 004°60'0 0.0
2015-Jun-28 21:33N 43°24' E 004°60'0 0.0
2015-Jun-28 20:33N 43°24' E 004°60'0 0.0
2015-Jun-28 19:33N 43°24' E 004°60'0 0.0
2015-Jun-28 18:33N 43°24' E 004°60'0 0.0
2015-Jun-28 17:34N 43°24' E 004°60'0 0.0
2015-Jun-28 16:33N 43°24' E 004°60'0 0.0
2015-Jun-28 15:33N 43°24' E 004°60'0 0.0
2015-Jun-28 14:33N 43°24' E 004°60'0 0.0
2015-Jun-28 13:33N 43°24' E 004°60'0 0.0
2015-Jun-28 12:33N 43°24' E 004°60'0 0.0
2015-Jun-28 11:33N 43°24' E 004°60'0 0.0
2015-Jun-28 10:33N 43°24' E 004°60'0 0.0
2015-Jun-28 09:33N 43°24' E 004°60'0 0.0
2015-Jun-28 08:34N 43°24' E 004°60'0 0.0
2015-Jun-28 07:33N 43°24' E 004°60'0 0.0
2015-Jun-28 06:33N 43°24' E 004°60'0 0.0
2015-Jun-28 05:33N 43°24' E 004°60'0 0.0
2015-Jun-28 04:33N 43°24' E 004°60'0 0.0
2015-Jun-28 03:33N 43°24' E 004°60'0 0.0
2015-Jun-28 02:33N 43°24' E 004°60'0 0.0
2015-Jun-28 01:33N 43°24' E 004°60'0 0.0
2015-Jun-28 00:33N 43°24' E 004°60'0 0.0
2015-Jun-27 23:33N 43°24' E 004°60'0 0.0
2015-Jun-27 22:34N 43°24' E 004°60'4 3.6
2015-Jun-27 21:34N 43°21' E 005°00'7 7.4
2015-Jun-27 20:33N 43°16' E 005°08'8 7.9
2015-Jun-27 19:33N 43°12' E 005°18'8 7.7
2015-Jun-27 18:33N 43°09' E 005°27'8 7.7
2015-Jun-27 17:33N 43°06' E 005°37'8 7.6
2015-Jun-27 16:33N 43°04' E 005°47'7 6.9
2015-Jun-27 15:33N 43°04' E 005°56'4 3.6
2015-Jun-27 14:31N 43°06' E 005°53'0 0.0
2015-Jun-27 13:31N 43°06' E 005°53'0 0.0
2015-Jun-27 12:28N 43°06' E 005°53'0 0.0
2015-Jun-27 11:31N 43°06' E 005°53'0 0.0
2015-Jun-27 10:31N 43°06' E 005°53'0 0.0
2015-Jun-27 09:34N 43°06' E 005°53'0 0.0
2015-Jun-27 08:33N 43°06' E 005°53'2 2.2
2015-Jun-27 07:33N 43°05' E 005°56'5 4.9
2015-Jun-27 06:32N 43°03' E 005°50'8 8.0
2015-Jun-27 05:33N 43°05' E 005°40'9 8.4
2015-Jun-27 04:32N 43°08' E 005°29'8 8.3
2015-Jun-27 03:33N 43°12' E 005°19'8 8.5
2015-Jun-27 02:33N 43°16' E 005°08'8 8.2
2015-Jun-27 01:33N 43°21' E 005°00'3 3.0
2015-Jun-27 00:31N 43°24' E 004°60'0 0.0
2015-Jun-26 23:32N 43°24' E 004°60'0 0.0
2015-Jun-26 22:31N 43°24' E 004°60'0 0.0
2015-Jun-26 21:28N 43°24' E 004°60'0 0.0
2015-Jun-26 20:31N 43°24' E 004°60'0 0.0
2015-Jun-26 19:31N 43°24' E 004°60'0 0.0
2015-Jun-26 18:31N 43°24' E 004°60'0 0.0
2015-Jun-26 17:29N 43°24' E 004°60'0 0.0
2015-Jun-26 16:32N 43°24' E 004°60'0 0.0
2015-Jun-26 15:32N 43°24' E 004°60'0 0.0
2015-Jun-26 14:32N 43°24' E 004°60'0 0.0
2015-Jun-26 13:32N 43°24' E 004°60'0 0.0
2015-Jun-26 12:33N 43°24' E 004°60'0 0.0
2015-Jun-26 11:33N 43°24' E 004°60'0 0.0
2015-Jun-26 10:33N 43°24' E 004°60'0 0.0
2015-Jun-26 09:33N 43°24' E 004°60'0 0.0
2015-Jun-26 08:33N 43°24' E 004°60'0 0.0
2015-Jun-26 07:30N 43°24' E 004°60'0 0.0
2015-Jun-26 06:33N 43°24' E 004°60'0 0.0
2015-Jun-26 05:33N 43°24' E 004°60'0 0.0
2015-Jun-26 04:33N 43°24' E 004°60'0 0.0
2015-Jun-26 03:33N 43°24' E 004°60'0 0.0
2015-Jun-26 02:33N 43°24' E 004°60'0 0.0
2015-Jun-26 01:33N 43°24' E 004°60'0 0.0
2015-Jun-26 00:33N 43°24' E 004°60'0 0.0
2015-Jun-25 23:33N 43°24' E 004°60'0 0.0
2015-Jun-25 22:33N 43°24' E 004°60'0 0.0
2015-Jun-25 21:33N 43°24' E 004°60'0 0.0
2015-Jun-25 20:33N 43°24' E 004°60'0 0.0
2015-Jun-25 19:33N 43°24' E 004°60'0 0.0
2015-Jun-25 18:33N 43°24' E 004°60'0 0.0
2015-Jun-25 17:33N 43°24' E 004°60'1 0.7
2015-Jun-25 16:33N 43°24' E 004°59'0 0.0
2015-Jun-25 15:33N 43°24' E 004°59'0 0.0
2015-Jun-25 14:33N 43°24' E 004°59'0 0.0
2015-Jun-25 13:33N 43°24' E 004°59'0 0.0
2015-Jun-25 12:33N 43°24' E 004°59'0 0.3
2015-Jun-25 11:34N 43°24' E 004°59'0 0.4
2015-Jun-25 10:32N 43°24' E 004°60'0 0.0
2015-Jun-25 09:32N 43°24' E 004°60'0 0.0
2015-Jun-25 08:32N 43°24' E 004°60'0 0.0
2015-Jun-25 07:31N 43°24' E 004°60'0 0.0
2015-Jun-25 06:33N 43°24' E 004°60'0 0.0
2015-Jun-25 05:33N 43°24' E 004°60'0 0.0
2015-Jun-25 04:33N 43°24' E 004°60'0 0.0
2015-Jun-25 03:33N 43°24' E 004°60'0 0.0
2015-Jun-25 02:33N 43°24' E 004°60'0 0.0
2015-Jun-25 01:33N 43°24' E 004°60'0 0.0
2015-Jun-25 00:33N 43°24' E 004°60'0 0.0
2015-Jun-24 23:33N 43°24' E 004°60'0 0.0
2015-Jun-24 22:33N 43°24' E 004°60'0 0.0
2015-Jun-24 21:33N 43°24' E 004°60'0 0.0
2015-Jun-24 20:33N 43°24' E 004°60'0 0.0
2015-Jun-24 19:34N 43°24' E 004°60'5 4.7
2015-Jun-24 18:31N 43°25' E 004°53'0 0.0
2015-Jun-24 17:28N 43°25' E 004°53'0 0.0
2015-Jun-24 16:31N 43°25' E 004°53'1 0.8
2015-Jun-24 15:34N 43°24' E 004°53'5 4.5
2015-Jun-24 14:32N 43°24' E 004°60'0 0.0
2015-Jun-24 13:32N 43°24' E 004°60'0 0.0
2015-Jun-24 12:32N 43°24' E 004°60'0 0.0
2015-Jun-24 11:32N 43°24' E 004°60'0 0.0
2015-Jun-24 10:32N 43°24' E 004°60'2 2.3
2015-Jun-24 09:33N 43°24' E 004°57'3 3.3
2015-Jun-24 08:33N 43°26' E 004°53'0 0.0
2015-Jun-24 07:34N 43°26' E 004°53'5 4.8
2015-Jun-24 06:32N 43°24' E 004°60'0 0.0
2015-Jun-24 05:32N 43°24' E 004°60'0 0.0
2015-Jun-24 04:32N 43°24' E 004°60'0 0.0
2015-Jun-24 03:32N 43°24' E 004°60'0 0.0
2015-Jun-24 02:32N 43°24' E 004°60'0 0.0
2015-Jun-24 01:32N 43°24' E 004°60'0 0.0
2015-Jun-24 00:31N 43°24' E 004°60'0 0.0
2015-Jun-23 23:31N 43°24' E 004°60'0 0.0
2015-Jun-23 22:31N 43°24' E 004°60'0 0.0
2015-Jun-23 21:31N 43°24' E 004°60'0 0.0
2015-Jun-23 20:31N 43°24' E 004°60'0 0.0
2015-Jun-23 19:31N 43°24' E 004°60'0 0.0
2015-Jun-23 19:04N 43°24' E 004°60'0 0.0
2015-Jun-22 19:31N 43°24' E 004°60'0 0.0
2015-Jun-22 18:31N 43°24' E 004°60'0 0.0
2015-Jun-22 17:31N 43°24' E 004°60'0 0.0
2015-Jun-22 16:31N 43°24' E 004°60'1 1.2
2015-Jun-22 15:31N 43°24' E 004°58'0 0.0
2015-Jun-22 14:31N 43°24' E 004°58'0 0.0
2015-Jun-22 13:31N 43°24' E 004°58'1 1.2
2015-Jun-22 12:30N 43°24' E 004°60'0 0.0
2015-Jun-22 11:33N 43°24' E 004°60'0 0.0
2015-Jun-22 10:33N 43°24' E 004°60'0 0.0
2015-Jun-22 09:33N 43°24' E 004°60'0 0.0
2015-Jun-22 08:32N 43°24' E 004°60'0 0.0
2015-Jun-22 07:32N 43°24' E 004°60'0 0.0
2015-Jun-22 06:32N 43°24' E 004°60'0 0.0
2015-Jun-22 05:32N 43°24' E 004°60'0 0.0
2015-Jun-22 04:32N 43°24' E 004°60'0 0.0
2015-Jun-22 03:32N 43°24' E 004°60'0 0.0
2015-Jun-22 02:32N 43°24' E 004°60'0 0.0
2015-Jun-22 01:32N 43°24' E 004°60'0 0.0
2015-Jun-22 00:32N 43°24' E 004°60'0 0.0
2015-Jun-21 23:32N 43°24' E 004°60'0 0.0
2015-Jun-21 22:32N 43°24' E 004°60'0 0.0
2015-Jun-21 21:32N 43°24' E 004°60'0 0.0
2015-Jun-21 20:32N 43°24' E 004°60'0 0.0
2015-Jun-21 19:32N 43°24' E 004°60'0 0.0
2015-Jun-21 18:32N 43°24' E 004°60'0 0.0
2015-Jun-21 17:32N 43°24' E 004°60'0 0.0
2015-Jun-21 16:32N 43°24' E 004°60'0 0.0
2015-Jun-21 15:32N 43°24' E 004°60'0 0.0
2015-Jun-21 14:32N 43°24' E 004°60'0 0.0
2015-Jun-21 13:32N 43°24' E 004°60'0 0.0
2015-Jun-21 12:32N 43°24' E 004°60'0 0.0
2015-Jun-21 11:32N 43°24' E 004°60'0 0.0
2015-Jun-21 10:32N 43°24' E 004°60'0 0.0
2015-Jun-21 09:32N 43°24' E 004°60'0 0.0
2015-Jun-21 08:32N 43°24' E 004°60'0 0.0
2015-Jun-21 07:32N 43°24' E 004°60'0 0.0
2015-Jun-21 06:32N 43°24' E 004°60'0 0.0
2015-Jun-21 05:29N 43°24' E 004°60'0 0.0
2015-Jun-21 04:32N 43°24' E 004°60'0 0.0
2015-Jun-21 03:33N 43°24' E 004°60'0 0.0
2015-Jun-21 02:33N 43°24' E 004°60'0 0.0
2015-Jun-21 01:33N 43°24' E 004°60'0 0.0
2015-Jun-21 00:33N 43°24' E 004°60'0 0.0
2015-Jun-20 23:33N 43°24' E 004°60'0 0.0
2015-Jun-20 22:33N 43°24' E 004°60'0 0.0
2015-Jun-20 21:33N 43°24' E 004°60'0 0.0
2015-Jun-20 20:33N 43°24' E 004°60'0 0.0
2015-Jun-20 19:33N 43°24' E 004°60'0 0.0
2015-Jun-20 18:33N 43°24' E 004°60'0 0.0
2015-Jun-20 17:33N 43°24' E 004°60'0 0.0
2015-Jun-20 16:33N 43°24' E 004°60'0 0.0
2015-Jun-20 15:33N 43°24' E 004°60'0 0.0
2015-Jun-20 14:33N 43°24' E 004°60'0 0.0
2015-Jun-20 13:33N 43°24' E 004°60'0 0.0
2015-Jun-20 12:33N 43°24' E 004°60'0 0.0
2015-Jun-20 11:33N 43°24' E 004°60'0 0.0
2015-Jun-20 10:33N 43°24' E 004°60'0 0.0
2015-Jun-20 09:31N 43°24' E 004°60'0 0.0
2015-Jun-20 08:31N 43°24' E 004°60'0 0.0
2015-Jun-20 07:31N 43°24' E 004°60'0 0.0
2015-Jun-20 06:31N 43°24' E 004°60'0 0.0
2015-Jun-20 05:31N 43°24' E 004°60'0 0.0
2015-Jun-20 04:31N 43°24' E 004°60'0 0.0
2015-Jun-20 03:31N 43°24' E 004°60'  

Dump ship's entire track history